Terminal Aerodrome Forecast
Issued by NWS Lake Charles, LA

Current Version | Previous Version | Text Only | Print | Product List | Glossary On
Versions: 1 2 3 4 5 6 7 8 9 10 11 12 13 14 15 16
000
FTUS44 KLCH 282336
TAFLFT
TAF
KLFT 282336Z 2900/2924 04004KT P6SM VCSH FEW060 BKN200
     FM290200 VRB03KT P6SM FEW100 BKN200
     FM290900 04004KT P6SM SCT005 BKN200
     FM291400 05008KT P6SM VCSH SCT015 BKN080
     FM291900 05009KT P6SM VCTS FEW015CB SCT025 BKN050 PROB30
      2919/2923 VRB12G20KT 2SM +TSRA BKN015CB OVC025=

USA.gov is the U.S. government's official web portal to all federal, state and local government web resources and services.